sensor_id;sensor_type;location;lat;lon;timestamp;temperature;humidity
43627;DHT22;29217;52.586;13.442;2022-12-18T00:01:45;-3.90;99.90
43627;DHT22;29217;52.586;13.442;2022-12-18T00:04:21;-3.90;99.90
43627;DHT22;29217;52.586;13.442;2022-12-18T00:06:47;-3.90;99.90
43627;DHT22;29217;52.586;13.442;2022-12-18T00:09:12;-4.00;99.90
43627;DHT22;29217;52.586;13.442;2022-12-18T00:11:38;-4.00;99.90
43627;DHT22;29217;52.586;13.442;2022-12-18T00:14:04;-4.00;99.90
43627;DHT22;29217;52.586;13.442;2022-12-18T00:16:29;-4.10;99.90
43627;DHT22;29217;52.586;13.442;2022-12-18T00:18:58;-4.10;99.90
43627;DHT22;29217;52.586;13.442;2022-12-18T00:21:24;-4.20;99.90
43627;DHT22;29217;52.586;13.442;2022-12-18T00:23:51;-4.10;99.90
43627;DHT22;29217;52.586;13.442;2022-12-18T00:26:22;-4.10;99.90
43627;DHT22;29217;52.586;13.442;2022-12-18T00:28:48;-4.30;99.90
43627;DHT22;29217;52.586;13.442;2022-12-18T00:31:22;-4.30;99.90
43627;DHT22;29217;52.586;13.442;2022-12-18T00:33:48;-4.20;99.90
43627;DHT22;29217;52.586;13.442;2022-12-18T00:36:16;-4.20;99.90
43627;DHT22;29217;52.586;13.442;2022-12-18T00:38:42;-4.30;99.90
43627;DHT22;29217;52.586;13.442;2022-12-18T00:41:09;-4.50;99.90
43627;DHT22;29217;52.586;13.442;2022-12-18T00:43:37;-4.40;99.90
43627;DHT22;29217;52.586;13.442;2022-12-18T00:46:03;-4.50;99.90
43627;DHT22;29217;52.586;13.442;2022-12-18T00:48:29;-4.60;99.90
43627;DHT22;29217;52.586;13.442;2022-12-18T00:50:55;-4.70;99.90
43627;DHT22;29217;52.586;13.442;2022-12-18T00:53:21;-4.70;99.90
43627;DHT22;29217;52.586;13.442;2022-12-18T00:55:47;-4.70;99.90
43627;DHT22;29217;52.586;13.442;2022-12-18T00:58:14;-4.90;99.90
43627;DHT22;29217;52.586;13.442;2022-12-18T01:00:40;-4.80;99.90
43627;DHT22;29217;52.586;13.442;2022-12-18T01:03:05;-4.80;99.90
43627;DHT22;29217;52.586;13.442;2022-12-18T01:05:31;-4.90;99.90
43627;DHT22;29217;52.586;13.442;2022-12-18T01:07:57;-4.70;99.90
43627;DHT22;29217;52.586;13.442;2022-12-18T01:10:24;-4.70;99.90
43627;DHT22;29217;52.586;13.442;2022-12-18T01:12:50;-4.70;99.90
43627;DHT22;29217;52.586;13.442;2022-12-18T01:15:16;-4.70;99.90
43627;DHT22;29217;52.586;13.442;2022-12-18T01:17:42;-4.70;99.90
43627;DHT22;29217;52.586;13.442;2022-12-18T01:20:10;-4.70;99.90
43627;DHT22;29217;52.586;13.442;2022-12-18T01:22:36;-4.70;99.90
43627;DHT22;29217;52.586;13.442;2022-12-18T01:25:02;-4.70;99.90
43627;DHT22;29217;52.586;13.442;2022-12-18T01:27:28;-4.70;99.90
43627;DHT22;29217;52.586;13.442;2022-12-18T01:29:54;-4.70;99.90
43627;DHT22;29217;52.586;13.442;2022-12-18T01:32:19;-4.80;99.90
43627;DHT22;29217;52.586;13.442;2022-12-18T01:34:45;-4.90;99.90
43627;DHT22;29217;52.586;13.442;2022-12-18T01:37:11;-5.00;99.90
43627;DHT22;29217;52.586;13.442;2022-12-18T01:39:36;-5.10;99.90
43627;DHT22;29217;52.586;13.442;2022-12-18T01:42:02;-5.10;99.90
43627;DHT22;29217;52.586;13.442;2022-12-18T01:47:48;-5.20;99.90
43627;DHT22;29217;52.586;13.442;2022-12-18T01:50:18;-5.10;99.90
43627;DHT22;29217;52.586;13.442;2022-12-18T01:52:52;-5.10;99.90
43627;DHT22;29217;52.586;13.442;2022-12-18T01:55:20;-5.10;99.90
43627;DHT22;29217;52.586;13.442;2022-12-18T01:57:48;-5.20;99.90
43627;DHT22;29217;52.586;13.442;2022-12-18T02:00:17;-5.10;99.90
43627;DHT22;29217;52.586;13.442;2022-12-18T02:02:45;-5.10;99.90
43627;DHT22;29217;52.586;13.442;2022-12-18T02:05:14;-5.00;99.90
43627;DHT22;29217;52.586;13.442;2022-12-18T02:11:05;-5.10;99.90
43627;DHT22;29217;52.586;13.442;2022-12-18T02:22:29;-5.10;99.90
43627;DHT22;29217;52.586;13.442;2022-12-18T02:27:40;-5.30;99.90
43627;DHT22;29217;52.586;13.442;2022-12-18T02:30:07;-5.30;99.90
43627;DHT22;29217;52.586;13.442;2022-12-18T02:32:40;-5.30;99.90
43627;DHT22;29217;52.586;13.442;2022-12-18T02:35:10;-5.30;99.90
43627;DHT22;29217;52.586;13.442;2022-12-18T02:37:39;-5.30;99.90
43627;DHT22;29217;52.586;13.442;2022-12-18T02:40:06;-5.40;99.90
43627;DHT22;29217;52.586;13.442;2022-12-18T02:42:32;-5.30;99.90
43627;DHT22;29217;52.586;13.442;2022-12-18T02:44:58;-5.20;99.90
43627;DHT22;29217;52.586;13.442;2022-12-18T02:47:28;-5.10;99.90
43627;DHT22;29217;52.586;13.442;2022-12-18T02:52:31;-5.00;99.90
43627;DHT22;29217;52.586;13.442;2022-12-18T02:55:17;-5.00;99.90
43627;DHT22;29217;52.586;13.442;2022-12-18T02:57:57;-5.00;99.90
43627;DHT22;29217;52.586;13.442;2022-12-18T03:00:39;-5.00;99.90
43627;DHT22;29217;52.586;13.442;2022-12-18T03:03:18;-5.10;99.90
43627;DHT22;29217;52.586;13.442;2022-12-18T03:05:55;-5.10;99.90
43627;DHT22;29217;52.586;13.442;2022-12-18T03:08:24;-5.10;99.90
43627;DHT22;29217;52.586;13.442;2022-12-18T03:10:58;-5.10;99.90
43627;DHT22;29217;52.586;13.442;2022-12-18T03:16:17;-5.20;99.90
43627;DHT22;29217;52.586;13.442;2022-12-18T03:18:51;-5.10;99.90
43627;DHT22;29217;52.586;13.442;2022-12-18T03:21:22;-5.20;99.90
43627;DHT22;29217;52.586;13.442;2022-12-18T03:23:49;-5.20;99.90
43627;DHT22;29217;52.586;13.442;2022-12-18T03:26:18;-5.10;99.90
43627;DHT22;29217;52.586;13.442;2022-12-18T03:28:52;-5.10;99.90
43627;DHT22;29217;52.586;13.442;2022-12-18T03:31:20;-5.20;99.90
43627;DHT22;29217;52.586;13.442;2022-12-18T03:33:56;-5.30;99.90
43627;DHT22;29217;52.586;13.442;2022-12-18T03:36:23;-5.20;99.90
43627;DHT22;29217;52.586;13.442;2022-12-18T03:38:49;-5.20;99.90
43627;DHT22;29217;52.586;13.442;2022-12-18T03:41:19;-5.30;99.90
43627;DHT22;29217;52.586;13.442;2022-12-18T03:44:01;-5.30;99.90
43627;DHT22;29217;52.586;13.442;2022-12-18T03:46:35;-5.20;99.90
43627;DHT22;29217;52.586;13.442;2022-12-18T03:49:27;-5.20;99.90
43627;DHT22;29217;52.586;13.442;2022-12-18T03:54:33;-5.30;99.90
43627;DHT22;29217;52.586;13.442;2022-12-18T03:57:05;-5.30;99.90
43627;DHT22;29217;52.586;13.442;2022-12-18T03:59:33;-5.30;99.90
43627;DHT22;29217;52.586;13.442;2022-12-18T04:02:00;-5.20;99.90
43627;DHT22;29217;52.586;13.442;2022-12-18T04:04:27;-5.10;99.90
43627;DHT22;29217;52.586;13.442;2022-12-18T04:06:54;-5.10;99.90
43627;DHT22;29217;52.586;13.442;2022-12-18T04:09:20;-5.10;99.90
43627;DHT22;29217;52.586;13.442;2022-12-18T04:11:46;-5.20;99.90
43627;DHT22;29217;52.586;13.442;2022-12-18T04:14:12;-5.20;99.90
43627;DHT22;29217;52.586;13.442;2022-12-18T04:16:38;-5.20;99.90
43627;DHT22;29217;52.586;13.442;2022-12-18T04:19:04;-5.20;99.90
43627;DHT22;29217;52.586;13.442;2022-12-18T04:21:30;-5.20;99.90
43627;DHT22;29217;52.586;13.442;2022-12-18T04:23:55;-5.20;99.90
43627;DHT22;29217;52.586;13.442;2022-12-18T04:26:21;-5.20;99.90
43627;DHT22;29217;52.586;13.442;2022-12-18T04:28:47;-5.30;99.90
43627;DHT22;29217;52.586;13.442;2022-12-18T04:31:12;-5.50;99.90
43627;DHT22;29217;52.586;13.442;2022-12-18T04:33:38;-5.60;99.90
43627;DHT22;29217;52.586;13.442;2022-12-18T04:36:04;-5.60;99.90
43627;DHT22;29217;52.586;13.442;2022-12-18T04:38:30;-5.60;99.90
43627;DHT22;29217;52.586;13.442;2022-12-18T04:40:55;-5.70;99.90
43627;DHT22;29217;52.586;13.442;2022-12-18T04:43:21;-5.60;99.90
43627;DHT22;29217;52.586;13.442;2022-12-18T04:45:46;-5.70;99.90
43627;DHT22;29217;52.586;13.442;2022-12-18T04:48:12;-5.60;99.90
43627;DHT22;29217;52.586;13.442;2022-12-18T04:50:37;-5.60;99.90
43627;DHT22;29217;52.586;13.442;2022-12-18T04:53:03;-5.70;99.90
43627;DHT22;29217;52.586;13.442;2022-12-18T04:55:29;-5.70;99.90
43627;DHT22;29217;52.586;13.442;2022-12-18T04:57:55;-5.80;99.90
43627;DHT22;29217;52.586;13.442;2022-12-18T05:00:21;-5.90;99.90
43627;DHT22;29217;52.586;13.442;2022-12-18T05:02:46;-5.90;99.90
43627;DHT22;29217;52.586;13.442;2022-12-18T05:05:12;-5.90;99.90
43627;DHT22;29217;52.586;13.442;2022-12-18T05:07:38;-5.90;99.90
43627;DHT22;29217;52.586;13.442;2022-12-18T05:10:04;-5.90;99.90
43627;DHT22;29217;52.586;13.442;2022-12-18T05:12:32;-5.90;99.90
43627;DHT22;29217;52.586;13.442;2022-12-18T05:14:58;-5.90;99.90
43627;DHT22;29217;52.586;13.442;2022-12-18T05:17:24;-5.80;99.90
43627;DHT22;29217;52.586;13.442;2022-12-18T05:19:49;-5.80;99.90
43627;DHT22;29217;52.586;13.442;2022-12-18T05:22:15;-5.80;99.90
43627;DHT22;29217;52.586;13.442;2022-12-18T05:24:40;-5.80;99.90
43627;DHT22;29217;52.586;13.442;2022-12-18T05:27:06;-5.80;99.90
43627;DHT22;29217;52.586;13.442;2022-12-18T05:29:32;-5.90;99.90
43627;DHT22;29217;52.586;13.442;2022-12-18T05:31:57;-5.90;99.90
43627;DHT22;29217;52.586;13.442;2022-12-18T05:34:23;-5.90;99.90
43627;DHT22;29217;52.586;13.442;2022-12-18T05:36:48;-5.90;99.90
43627;DHT22;29217;52.586;13.442;2022-12-18T05:39:14;-5.90;99.90
43627;DHT22;29217;52.586;13.442;2022-12-18T05:41:40;-5.80;99.90
43627;DHT22;29217;52.586;13.442;2022-12-18T05:44:05;-5.80;99.90
43627;DHT22;29217;52.586;13.442;2022-12-18T05:46:31;-5.80;99.90
43627;DHT22;29217;52.586;13.442;2022-12-18T05:48:59;-5.80;99.90
43627;DHT22;29217;52.586;13.442;2022-12-18T05:51:26;-5.80;99.90
43627;DHT22;29217;52.586;13.442;2022-12-18T05:53:51;-5.80;99.90
43627;DHT22;29217;52.586;13.442;2022-12-18T05:56:20;-5.70;99.90
43627;DHT22;29217;52.586;13.442;2022-12-18T05:58:46;-5.80;99.90
43627;DHT22;29217;52.586;13.442;2022-12-18T06:01:18;-5.70;99.90
43627;DHT22;29217;52.586;13.442;2022-12-18T06:03:44;-5.70;99.90
43627;DHT22;29217;52.586;13.442;2022-12-18T06:06:16;-5.70;99.90
43627;DHT22;29217;52.586;13.442;2022-12-18T06:08:43;-5.80;99.90
43627;DHT22;29217;52.586;13.442;2022-12-18T06:11:09;-5.80;99.90
43627;DHT22;29217;52.586;13.442;2022-12-18T06:13:34;-5.70;99.90
43627;DHT22;29217;52.586;13.442;2022-12-18T06:16:03;-5.70;99.90
43627;DHT22;29217;52.586;13.442;2022-12-18T06:18:29;-5.60;99.90
43627;DHT22;29217;52.586;13.442;2022-12-18T06:20:55;-5.70;99.90
43627;DHT22;29217;52.586;13.442;2022-12-18T06:23:21;-5.60;99.90
43627;DHT22;29217;52.586;13.442;2022-12-18T06:25:47;-5.60;99.90
43627;DHT22;29217;52.586;13.442;2022-12-18T06:28:13;-5.50;99.90
43627;DHT22;29217;52.586;13.442;2022-12-18T06:30:38;-5.60;99.90
43627;DHT22;29217;52.586;13.442;2022-12-18T06:33:04;-5.50;99.90
43627;DHT22;29217;52.586;13.442;2022-12-18T06:35:29;-5.50;99.90
43627;DHT22;29217;52.586;13.442;2022-12-18T06:37:55;-5.50;99.90
43627;DHT22;29217;52.586;13.442;2022-12-18T06:40:20;-5.50;99.90
43627;DHT22;29217;52.586;13.442;2022-12-18T06:42:46;-5.40;99.90
43627;DHT22;29217;52.586;13.442;2022-12-18T06:45:11;-5.40;99.90
43627;DHT22;29217;52.586;13.442;2022-12-18T06:47:40;-5.40;99.90
43627;DHT22;29217;52.586;13.442;2022-12-18T06:50:06;-5.50;99.90
43627;DHT22;29217;52.586;13.442;2022-12-18T06:52:32;-5.50;99.90
43627;DHT22;29217;52.586;13.442;2022-12-18T06:54:58;-5.50;99.90
43627;DHT22;29217;52.586;13.442;2022-12-18T06:57:23;-5.50;99.90
43627;DHT22;29217;52.586;13.442;2022-12-18T06:59:49;-5.40;99.90
43627;DHT22;29217;52.586;13.442;2022-12-18T07:02:14;-5.40;99.90
43627;DHT22;29217;52.586;13.442;2022-12-18T07:04:40;-5.40;99.90
43627;DHT22;29217;52.586;13.442;2022-12-18T07:07:06;-5.50;99.90
43627;DHT22;29217;52.586;13.442;2022-12-18T07:09:31;-5.60;99.90
43627;DHT22;29217;52.586;13.442;2022-12-18T07:11:57;-5.60;99.90
43627;DHT22;29217;52.586;13.442;2022-12-18T07:14:22;-5.50;99.90
43627;DHT22;29217;52.586;13.442;2022-12-18T07:16:48;-5.50;99.90
43627;DHT22;29217;52.586;13.442;2022-12-18T07:19:13;-5.50;99.90
43627;DHT22;29217;52.586;13.442;2022-12-18T07:21:39;-5.50;99.90
43627;DHT22;29217;52.586;13.442;2022-12-18T07:24:05;-5.50;99.90
43627;DHT22;29217;52.586;13.442;2022-12-18T07:26:31;-5.50;99.90
43627;DHT22;29217;52.586;13.442;2022-12-18T07:28:57;-5.50;99.90
43627;DHT22;29217;52.586;13.442;2022-12-18T07:31:23;-5.40;99.90
43627;DHT22;29217;52.586;13.442;2022-12-18T07:33:50;-5.40;99.90
43627;DHT22;29217;52.586;13.442;2022-12-18T07:36:16;-5.30;99.90
43627;DHT22;29217;52.586;13.442;2022-12-18T07:38:42;-5.30;99.90
43627;DHT22;29217;52.586;13.442;2022-12-18T07:41:13;-5.30;99.90
43627;DHT22;29217;52.586;13.442;2022-12-18T07:43:39;-5.30;99.90
43627;DHT22;29217;52.586;13.442;2022-12-18T07:46:05;-5.20;99.90
43627;DHT22;29217;52.586;13.442;2022-12-18T07:48:31;-5.20;99.90
43627;DHT22;29217;52.586;13.442;2022-12-18T07:51:04;-5.20;99.90
43627;DHT22;29217;52.586;13.442;2022-12-18T07:53:30;-5.20;99.90
43627;DHT22;29217;52.586;13.442;2022-12-18T07:55:57;-5.20;99.90
43627;DHT22;29217;52.586;13.442;2022-12-18T07:58:23;-5.20;99.90
43627;DHT22;29217;52.586;13.442;2022-12-18T08:00:49;-5.30;99.90
43627;DHT22;29217;52.586;13.442;2022-12-18T08:03:14;-5.30;99.90
43627;DHT22;29217;52.586;13.442;2022-12-18T08:05:40;-5.40;99.90
43627;DHT22;29217;52.586;13.442;2022-12-18T08:08:05;-5.30;99.90
43627;DHT22;29217;52.586;13.442;2022-12-18T08:10:31;-5.30;99.90
43627;DHT22;29217;52.586;13.442;2022-12-18T08:12:56;-5.20;99.90
43627;DHT22;29217;52.586;13.442;2022-12-18T08:15:23;-5.20;99.90
43627;DHT22;29217;52.586;13.442;2022-12-18T08:17:49;-5.10;99.90
43627;DHT22;29217;52.586;13.442;2022-12-18T08:20:15;-5.10;99.90
43627;DHT22;29217;52.586;13.442;2022-12-18T08:22:44;-5.10;99.90
43627;DHT22;29217;52.586;13.442;2022-12-18T08:25:10;-5.10;99.90
43627;DHT22;29217;52.586;13.442;2022-12-18T08:27:36;-5.00;99.90
43627;DHT22;29217;52.586;13.442;2022-12-18T08:30:02;-5.00;99.90
43627;DHT22;29217;52.586;13.442;2022-12-18T08:32:28;-5.10;99.90
43627;DHT22;29217;52.586;13.442;2022-12-18T08:34:54;-4.90;99.90
43627;DHT22;29217;52.586;13.442;2022-12-18T08:37:19;-5.00;99.90
43627;DHT22;29217;52.586;13.442;2022-12-18T08:39:45;-4.90;99.90
43627;DHT22;29217;52.586;13.442;2022-12-18T08:42:11;-4.90;99.90
43627;DHT22;29217;52.586;13.442;2022-12-18T08:44:55;-5.00;99.90
43627;DHT22;29217;52.586;13.442;2022-12-18T08:47:20;-4.90;99.90
43627;DHT22;29217;52.586;13.442;2022-12-18T08:49:46;-4.90;99.90
43627;DHT22;29217;52.586;13.442;2022-12-18T08:52:15;-4.90;99.90
43627;DHT22;29217;52.586;13.442;2022-12-18T08:54:40;-5.00;99.90
43627;DHT22;29217;52.586;13.442;2022-12-18T08:57:06;-5.10;99.90
43627;DHT22;29217;52.586;13.442;2022-12-18T08:59:32;-5.00;99.90
43627;DHT22;29217;52.586;13.442;2022-12-18T09:01:57;-5.00;99.90
43627;DHT22;29217;52.586;13.442;2022-12-18T09:04:23;-5.00;99.90
43627;DHT22;29217;52.586;13.442;2022-12-18T09:06:48;-4.90;99.90
43627;DHT22;29217;52.586;13.442;2022-12-18T09:09:14;-4.90;99.90
43627;DHT22;29217;52.586;13.442;2022-12-18T09:11:40;-4.90;99.90
43627;DHT22;29217;52.586;13.442;2022-12-18T09:14:05;-4.80;99.90
43627;DHT22;29217;52.586;13.442;2022-12-18T09:16:32;-4.80;99.90
43627;DHT22;29217;52.586;13.442;2022-12-18T09:19:01;-4.90;99.90
43627;DHT22;29217;52.586;13.442;2022-12-18T09:21:32;-4.80;99.90
43627;DHT22;29217;52.586;13.442;2022-12-18T09:23:58;-4.80;99.90
43627;DHT22;29217;52.586;13.442;2022-12-18T09:26:25;-4.80;99.90
43627;DHT22;29217;52.586;13.442;2022-12-18T09:28:51;-4.70;99.90
43627;DHT22;29217;52.586;13.442;2022-12-18T09:31:19;-4.80;99.90
43627;DHT22;29217;52.586;13.442;2022-12-18T09:33:45;-4.80;99.90
43627;DHT22;29217;52.586;13.442;2022-12-18T09:36:13;-4.70;99.90
43627;DHT22;29217;52.586;13.442;2022-12-18T09:38:39;-4.70;99.90
43627;DHT22;29217;52.586;13.442;2022-12-18T09:44:05;-4.70;99.90
43627;DHT22;29217;52.586;13.442;2022-12-18T09:46:41;-4.70;99.90
43627;DHT22;29217;52.586;13.442;2022-12-18T09:49:13;-4.70;99.90
43627;DHT22;29217;52.586;13.442;2022-12-18T09:51:47;-4.70;99.90
43627;DHT22;29217;52.586;13.442;2022-12-18T09:54:25;-4.70;99.90
43627;DHT22;29217;52.586;13.442;2022-12-18T09:56:51;-4.60;99.90
43627;DHT22;29217;52.586;13.442;2022-12-18T09:59:27;-4.60;99.90
43627;DHT22;29217;52.586;13.442;2022-12-18T10:01:56;-4.70;99.90
43627;DHT22;29217;52.586;13.442;2022-12-18T10:04:22;-4.60;99.90
43627;DHT22;29217;52.586;13.442;2022-12-18T10:09:32;-4.50;99.90
43627;DHT22;29217;52.586;13.442;2022-12-18T10:14:54;-4.30;99.90
43627;DHT22;29217;52.586;13.442;2022-12-18T10:17:50;-4.30;99.90
43627;DHT22;29217;52.586;13.442;2022-12-18T10:23:08;-4.30;99.90
43627;DHT22;29217;52.586;13.442;2022-12-18T10:25:55;-4.20;99.90
43627;DHT22;29217;52.586;13.442;2022-12-18T10:28:25;-4.20;99.90
43627;DHT22;29217;52.586;13.442;2022-12-18T10:30:51;-4.20;99.90
43627;DHT22;29217;52.586;13.442;2022-12-18T10:33:20;-4.10;99.90
43627;DHT22;29217;52.586;13.442;2022-12-18T10:35:48;-4.10;99.90
43627;DHT22;29217;52.586;13.442;2022-12-18T10:46:02;-4.00;99.90
43627;DHT22;29217;52.586;13.442;2022-12-18T10:48:31;-3.90;99.90
43627;DHT22;29217;52.586;13.442;2022-12-18T10:50:58;-3.90;99.90
43627;DHT22;29217;52.586;13.442;2022-12-18T10:53:27;-3.80;99.90
43627;DHT22;29217;52.586;13.442;2022-12-18T10:55:56;-3.80;99.90
43627;DHT22;29217;52.586;13.442;2022-12-18T11:03:45;-3.80;99.90
43627;DHT22;29217;52.586;13.442;2022-12-18T11:06:19;-3.60;99.90
43627;DHT22;29217;52.586;13.442;2022-12-18T11:09:19;-3.60;99.90
43627;DHT22;29217;52.586;13.442;2022-12-18T11:14:47;-3.70;99.90
43627;DHT22;29217;52.586;13.442;2022-12-18T11:17:33;-3.80;99.90
43627;DHT22;29217;52.586;13.442;2022-12-18T11:20:06;-3.80;99.90
43627;DHT22;29217;52.586;13.442;2022-12-18T11:22:35;-3.70;99.90
43627;DHT22;29217;52.586;13.442;2022-12-18T11:25:05;-3.60;99.90
43627;DHT22;29217;52.586;13.442;2022-12-18T11:27:32;-3.50;99.90
43627;DHT22;29217;52.586;13.442;2022-12-18T11:33:13;-3.50;99.90
43627;DHT22;29217;52.586;13.442;2022-12-18T11:35:51;-3.50;99.90
43627;DHT22;29217;52.586;13.442;2022-12-18T11:38:22;-3.50;99.90
43627;DHT22;29217;52.586;13.442;2022-12-18T11:43:32;-3.60;99.90
43627;DHT22;29217;52.586;13.442;2022-12-18T11:46:06;-3.60;99.90
43627;DHT22;29217;52.586;13.442;2022-12-18T11:48:38;-3.60;99.90
43627;DHT22;29217;52.586;13.442;2022-12-18T11:51:08;-3.60;99.90
43627;DHT22;29217;52.586;13.442;2022-12-18T11:53:35;-3.70;99.90
43627;DHT22;29217;52.586;13.442;2022-12-18T11:58:55;-3.60;99.90
43627;DHT22;29217;52.586;13.442;2022-12-18T12:01:34;-3.70;99.90
43627;DHT22;29217;52.586;13.442;2022-12-18T12:09:47;-3.60;99.90
43627;DHT22;29217;52.586;13.442;2022-12-18T12:12:27;-3.60;99.90
43627;DHT22;29217;52.586;13.442;2022-12-18T12:17:49;-3.60;99.90
43627;DHT22;29217;52.586;13.442;2022-12-18T12:23:55;-3.70;99.90
43627;DHT22;29217;52.586;13.442;2022-12-18T12:26:35;-3.50;99.90
43627;DHT22;29217;52.586;13.442;2022-12-18T12:32:20;-3.60;99.90
43627;DHT22;29217;52.586;13.442;2022-12-18T12:35:31;-3.50;99.90
43627;DHT22;29217;52.586;13.442;2022-12-18T12:38:46;-3.40;99.90
43627;DHT22;29217;52.586;13.442;2022-12-18T12:41:19;-3.40;99.90
43627;DHT22;29217;52.586;13.442;2022-12-18T12:44:07;-3.60;99.90
43627;DHT22;29217;52.586;13.442;2022-12-18T12:46:37;-3.70;99.90
43627;DHT22;29217;52.586;13.442;2022-12-18T12:49:11;-3.70;99.90
43627;DHT22;29217;52.586;13.442;2022-12-18T12:51:40;-3.80;99.90
43627;DHT22;29217;52.586;13.442;2022-12-18T12:54:23;-3.70;99.90
43627;DHT22;29217;52.586;13.442;2022-12-18T13:00:04;-3.60;99.90
43627;DHT22;29217;52.586;13.442;2022-12-18T13:05:52;-3.40;99.90
43627;DHT22;29217;52.586;13.442;2022-12-18T13:08:34;-3.50;99.90
43627;DHT22;29217;52.586;13.442;2022-12-18T13:11:42;-3.50;99.90
43627;DHT22;29217;52.586;13.442;2022-12-18T13:14:36;-3.40;99.90
43627;DHT22;29217;52.586;13.442;2022-12-18T13:20:03;-3.40;99.90
43627;DHT22;29217;52.586;13.442;2022-12-18T13:22:34;-3.30;99.90
43627;DHT22;29217;52.586;13.442;2022-12-18T13:25:00;-3.30;99.90
43627;DHT22;29217;52.586;13.442;2022-12-18T13:38:55;-3.40;99.90
43627;DHT22;29217;52.586;13.442;2022-12-18T13:41:24;-3.30;99.90
43627;DHT22;29217;52.586;13.442;2022-12-18T13:44:17;-3.30;99.90
43627;DHT22;29217;52.586;13.442;2022-12-18T13:46:49;-3.40;99.90
43627;DHT22;29217;52.586;13.442;2022-12-18T13:49:23;-3.30;99.90
43627;DHT22;29217;52.586;13.442;2022-12-18T13:51:55;-3.30;99.90
43627;DHT22;29217;52.586;13.442;2022-12-18T13:54:39;-3.30;99.90
43627;DHT22;29217;52.586;13.442;2022-12-18T13:59:52;-3.40;99.90
43627;DHT22;29217;52.586;13.442;2022-12-18T14:02:21;-3.30;99.90
43627;DHT22;29217;52.586;13.442;2022-12-18T14:04:48;-3.30;99.90
43627;DHT22;29217;52.586;13.442;2022-12-18T14:07:25;-3.30;99.90
43627;DHT22;29217;52.586;13.442;2022-12-18T14:09:56;-3.20;99.90
43627;DHT22;29217;52.586;13.442;2022-12-18T14:12:26;-3.20;99.90
43627;DHT22;29217;52.586;13.442;2022-12-18T14:15:25;-3.30;99.90
43627;DHT22;29217;52.586;13.442;2022-12-18T14:17:55;-3.30;99.90
43627;DHT22;29217;52.586;13.442;2022-12-18T14:20:21;-3.20;99.90
43627;DHT22;29217;52.586;13.442;2022-12-18T14:22:48;-3.20;99.90
43627;DHT22;29217;52.586;13.442;2022-12-18T14:25:25;-3.30;99.90
43627;DHT22;29217;52.586;13.442;2022-12-18T14:30:34;-3.20;99.90
43627;DHT22;29217;52.586;13.442;2022-12-18T14:33:06;-3.20;99.90
43627;DHT22;29217;52.586;13.442;2022-12-18T14:35:37;-3.10;99.90
43627;DHT22;29217;52.586;13.442;2022-12-18T14:40:42;-3.20;99.90
43627;DHT22;29217;52.586;13.442;2022-12-18T14:43:11;-3.30;99.90
43627;DHT22;29217;52.586;13.442;2022-12-18T14:45:41;-3.30;99.90
43627;DHT22;29217;52.586;13.442;2022-12-18T14:50:42;-3.20;99.90
43627;DHT22;29217;52.586;13.442;2022-12-18T14:53:39;-3.30;99.90
43627;DHT22;29217;52.586;13.442;2022-12-18T14:56:16;-3.30;99.90
43627;DHT22;29217;52.586;13.442;2022-12-18T14:58:58;-3.30;99.90
43627;DHT22;29217;52.586;13.442;2022-12-18T15:01:35;-3.40;99.90
43627;DHT22;29217;52.586;13.442;2022-12-18T15:04:03;-3.50;99.90
43627;DHT22;29217;52.586;13.442;2022-12-18T15:06:34;-3.40;99.90
43627;DHT22;29217;52.586;13.442;2022-12-18T15:09:44;-3.50;99.90
43627;DHT22;29217;52.586;13.442;2022-12-18T15:11:56;-3.50;99.90
43627;DHT22;29217;52.586;13.442;2022-12-18T15:14:39;-3.50;99.90
43627;DHT22;29217;52.586;13.442;2022-12-18T15:17:17;-3.40;99.90
43627;DHT22;29217;52.586;13.442;2022-12-18T15:19:44;-3.50;99.90
43627;DHT22;29217;52.586;13.442;2022-12-18T15:22:30;-3.50;99.90
43627;DHT22;29217;52.586;13.442;2022-12-18T15:24:59;-3.60;99.90
43627;DHT22;29217;52.586;13.442;2022-12-18T15:27:31;-3.60;99.90
43627;DHT22;29217;52.586;13.442;2022-12-18T15:32:30;-3.50;99.90
43627;DHT22;29217;52.586;13.442;2022-12-18T15:37:37;-3.60;99.90
43627;DHT22;29217;52.586;13.442;2022-12-18T15:40:06;-3.70;99.90
43627;DHT22;29217;52.586;13.442;2022-12-18T15:42:31;-3.60;99.90
43627;DHT22;29217;52.586;13.442;2022-12-18T15:45:16;-3.60;99.90
43627;DHT22;29217;52.586;13.442;2022-12-18T15:47:41;-3.60;99.90
43627;DHT22;29217;52.586;13.442;2022-12-18T15:50:08;-3.70;99.90
43627;DHT22;29217;52.586;13.442;2022-12-18T15:52:40;-3.70;99.90
43627;DHT22;29217;52.586;13.442;2022-12-18T15:55:14;-3.70;99.90
43627;DHT22;29217;52.586;13.442;2022-12-18T15:57:59;-3.70;99.90
43627;DHT22;29217;52.586;13.442;2022-12-18T16:00:24;-3.60;99.90
43627;DHT22;29217;52.586;13.442;2022-12-18T16:02:50;-3.60;99.90
43627;DHT22;29217;52.586;13.442;2022-12-18T16:05:17;-3.70;99.90
43627;DHT22;29217;52.586;13.442;2022-12-18T16:07:44;-3.70;99.90
43627;DHT22;29217;52.586;13.442;2022-12-18T16:10:10;-3.60;99.90
43627;DHT22;29217;52.586;13.442;2022-12-18T16:12:36;-3.70;99.90
43627;DHT22;29217;52.586;13.442;2022-12-18T16:15:03;-3.60;99.90
43627;DHT22;29217;52.586;13.442;2022-12-18T16:17:29;-3.60;99.90
43627;DHT22;29217;52.586;13.442;2022-12-18T16:19:55;-3.70;99.90
43627;DHT22;29217;52.586;13.442;2022-12-18T16:22:23;-3.70;99.90
43627;DHT22;29217;52.586;13.442;2022-12-18T16:24:50;-3.70;99.90
43627;DHT22;29217;52.586;13.442;2022-12-18T16:27:16;-3.80;99.90
43627;DHT22;29217;52.586;13.442;2022-12-18T16:29:42;-3.80;99.90
43627;DHT22;29217;52.586;13.442;2022-12-18T16:32:13;-3.80;99.90
43627;DHT22;29217;52.586;13.442;2022-12-18T16:34:39;-3.70;99.90
43627;DHT22;29217;52.586;13.442;2022-12-18T16:37:07;-3.80;99.90
43627;DHT22;29217;52.586;13.442;2022-12-18T16:39:33;-3.70;99.90
43627;DHT22;29217;52.586;13.442;2022-12-18T16:42:00;-3.80;99.90
43627;DHT22;29217;52.586;13.442;2022-12-18T16:44:26;-3.70;99.90
43627;DHT22;29217;52.586;13.442;2022-12-18T16:46:51;-3.70;99.90
43627;DHT22;29217;52.586;13.442;2022-12-18T16:49:18;-3.70;99.90
43627;DHT22;29217;52.586;13.442;2022-12-18T16:51:46;-3.70;99.90
43627;DHT22;29217;52.586;13.442;2022-12-18T16:54:12;-3.70;99.90
43627;DHT22;29217;52.586;13.442;2022-12-18T16:56:37;-3.70;99.90
43627;DHT22;29217;52.586;13.442;2022-12-18T16:59:04;-3.70;99.90
43627;DHT22;29217;52.586;13.442;2022-12-18T17:01:31;-3.70;99.90
43627;DHT22;29217;52.586;13.442;2022-12-18T17:04:02;-3.70;99.90
43627;DHT22;29217;52.586;13.442;2022-12-18T17:06:29;-3.70;99.90
43627;DHT22;29217;52.586;13.442;2022-12-18T17:08:59;-3.70;99.90
43627;DHT22;29217;52.586;13.442;2022-12-18T17:11:30;-3.60;99.90
43627;DHT22;29217;52.586;13.442;2022-12-18T17:13:56;-3.60;99.90
43627;DHT22;29217;52.586;13.442;2022-12-18T17:16:22;-3.60;99.90
43627;DHT22;29217;52.586;13.442;2022-12-18T17:18:48;-3.60;99.90
43627;DHT22;29217;52.586;13.442;2022-12-18T17:21:14;-3.60;99.90
43627;DHT22;29217;52.586;13.442;2022-12-18T17:23:43;-3.70;99.90